sensor_id;sensor_type;location;lat;lon;timestamp;P1;durP1;ratioP1;P2;durP2;ratioP2
40254;SDS011;25973;52.368;4.940;2023-05-10T00:01:20;27.30;;;14.93;;
40254;SDS011;25973;52.368;4.940;2023-05-10T00:03:46;33.97;;;16.00;;
40254;SDS011;25973;52.368;4.940;2023-05-10T00:06:11;25.33;;;13.63;;
40254;SDS011;25973;52.368;4.940;2023-05-10T00:08:37;25.13;;;14.25;;
40254;SDS011;25973;52.368;4.940;2023-05-10T00:11:03;25.75;;;14.27;;
40254;SDS011;25973;52.368;4.940;2023-05-10T00:13:28;29.40;;;15.57;;
40254;SDS011;25973;52.368;4.940;2023-05-10T00:15:54;29.67;;;15.43;;
40254;SDS011;25973;52.368;4.940;2023-05-10T00:18:20;30.35;;;14.95;;
40254;SDS011;25973;52.368;4.940;2023-05-10T00:20:45;25.05;;;15.02;;
40254;SDS011;25973;52.368;4.940;2023-05-10T00:23:11;26.88;;;13.95;;
40254;SDS011;25973;52.368;4.940;2023-05-10T00:25:37;34.53;;;15.88;;
40254;SDS011;25973;52.368;4.940;2023-05-10T00:28:02;26.02;;;15.27;;
40254;SDS011;25973;52.368;4.940;2023-05-10T00:30:28;26.35;;;15.43;;
40254;SDS011;25973;52.368;4.940;2023-05-10T00:32:53;29.55;;;14.95;;
40254;SDS011;25973;52.368;4.940;2023-05-10T00:35:19;30.45;;;15.18;;
40254;SDS011;25973;52.368;4.940;2023-05-10T00:37:46;31.10;;;16.02;;
40254;SDS011;25973;52.368;4.940;2023-05-10T00:40:12;34.30;;;16.52;;
40254;SDS011;25973;52.368;4.940;2023-05-10T00:42:37;34.25;;;16.17;;
40254;SDS011;25973;52.368;4.940;2023-05-10T00:45:03;34.90;;;14.93;;
40254;SDS011;25973;52.368;4.940;2023-05-10T00:47:29;30.02;;;15.98;;
40254;SDS011;25973;52.368;4.940;2023-05-10T00:49:55;32.25;;;15.75;;
40254;SDS011;25973;52.368;4.940;2023-05-10T00:52:21;30.65;;;15.88;;
40254;SDS011;25973;52.368;4.940;2023-05-10T00:54:49;33.35;;;16.30;;
40254;SDS011;25973;52.368;4.940;2023-05-10T00:57:16;35.42;;;16.40;;
40254;SDS011;25973;52.368;4.940;2023-05-10T00:59:42;26.75;;;13.85;;
40254;SDS011;25973;52.368;4.940;2023-05-10T01:02:07;30.67;;;15.40;;
40254;SDS011;25973;52.368;4.940;2023-05-10T01:04:33;29.63;;;16.88;;
40254;SDS011;25973;52.368;4.940;2023-05-10T01:07:00;29.50;;;16.35;;
40254;SDS011;25973;52.368;4.940;2023-05-10T01:09:26;32.22;;;16.75;;
40254;SDS011;25973;52.368;4.940;2023-05-10T01:11:52;31.38;;;16.48;;
40254;SDS011;25973;52.368;4.940;2023-05-10T01:14:19;30.35;;;16.05;;
40254;SDS011;25973;52.368;4.940;2023-05-10T01:16:45;31.38;;;17.70;;
40254;SDS011;25973;52.368;4.940;2023-05-10T01:19:17;31.92;;;16.15;;
40254;SDS011;25973;52.368;4.940;2023-05-10T01:21:50;27.13;;;15.60;;
40254;SDS011;25973;52.368;4.940;2023-05-10T01:27:31;27.85;;;14.40;;
40254;SDS011;25973;52.368;4.940;2023-05-10T01:40:47;22.27;;;14.07;;
40254;SDS011;25973;52.368;4.940;2023-05-10T01:43:28;26.05;;;15.07;;
40254;SDS011;25973;52.368;4.940;2023-05-10T01:46:07;24.83;;;16.15;;
40254;SDS011;25973;52.368;4.940;2023-05-10T01:48:48;28.27;;;16.20;;
40254;SDS011;25973;52.368;4.940;2023-05-10T01:51:20;25.60;;;16.33;;
40254;SDS011;25973;52.368;4.940;2023-05-10T01:53:48;31.02;;;16.60;;
40254;SDS011;25973;52.368;4.940;2023-05-10T01:56:16;30.77;;;16.45;;
40254;SDS011;25973;52.368;4.940;2023-05-10T01:58:44;29.52;;;16.52;;
40254;SDS011;25973;52.368;4.940;2023-05-10T02:01:13;31.55;;;17.55;;
40254;SDS011;25973;52.368;4.940;2023-05-10T02:03:40;31.08;;;16.45;;
40254;SDS011;25973;52.368;4.940;2023-05-10T02:06:07;31.13;;;16.70;;
40254;SDS011;25973;52.368;4.940;2023-05-10T02:08:35;33.25;;;16.45;;
40254;SDS011;25973;52.368;4.940;2023-05-10T02:11:02;29.42;;;16.83;;
40254;SDS011;25973;52.368;4.940;2023-05-10T02:13:28;32.78;;;17.23;;
40254;SDS011;25973;52.368;4.940;2023-05-10T02:15:57;32.70;;;16.08;;
40254;SDS011;25973;52.368;4.940;2023-05-10T02:18:24;37.97;;;17.73;;
40254;SDS011;25973;52.368;4.940;2023-05-10T02:20:51;34.10;;;17.67;;
40254;SDS011;25973;52.368;4.940;2023-05-10T02:23:19;35.63;;;18.83;;
40254;SDS011;25973;52.368;4.940;2023-05-10T02:25:46;36.55;;;18.02;;
40254;SDS011;25973;52.368;4.940;2023-05-10T02:28:14;35.40;;;17.15;;
40254;SDS011;25973;52.368;4.940;2023-05-10T02:30:40;33.67;;;19.65;;
40254;SDS011;25973;52.368;4.940;2023-05-10T02:33:06;41.45;;;19.33;;
40254;SDS011;25973;52.368;4.940;2023-05-10T02:35:32;44.25;;;20.45;;
40254;SDS011;25973;52.368;4.940;2023-05-10T02:37:59;39.70;;;18.98;;
40254;SDS011;25973;52.368;4.940;2023-05-10T02:40:26;46.13;;;21.23;;
40254;SDS011;25973;52.368;4.940;2023-05-10T02:42:54;48.33;;;20.17;;
40254;SDS011;25973;52.368;4.940;2023-05-10T02:45:22;46.50;;;19.85;;
40254;SDS011;25973;52.368;4.940;2023-05-10T02:47:51;44.22;;;20.13;;
40254;SDS011;25973;52.368;4.940;2023-05-10T02:50:17;46.30;;;19.35;;
40254;SDS011;25973;52.368;4.940;2023-05-10T02:52:44;36.80;;;16.67;;
40254;SDS011;25973;52.368;4.940;2023-05-10T02:55:14;44.47;;;18.35;;
40254;SDS011;25973;52.368;4.940;2023-05-10T02:57:44;35.83;;;17.80;;
40254;SDS011;25973;52.368;4.940;2023-05-10T03:00:15;46.70;;;17.45;;
40254;SDS011;25973;52.368;4.940;2023-05-10T03:02:41;44.33;;;17.45;;
40254;SDS011;25973;52.368;4.940;2023-05-10T03:05:07;34.15;;;15.95;;
40254;SDS011;25973;52.368;4.940;2023-05-10T03:07:33;35.90;;;16.50;;
40254;SDS011;25973;52.368;4.940;2023-05-10T03:09:59;33.88;;;17.42;;
40254;SDS011;25973;52.368;4.940;2023-05-10T03:12:31;33.75;;;15.70;;
40254;SDS011;25973;52.368;4.940;2023-05-10T03:18:09;38.42;;;17.95;;
40254;SDS011;25973;52.368;4.940;2023-05-10T03:20:43;36.05;;;16.17;;
40254;SDS011;25973;52.368;4.940;2023-05-10T03:23:21;42.30;;;17.40;;
40254;SDS011;25973;52.368;4.940;2023-05-10T03:25:49;38.90;;;17.63;;
40254;SDS011;25973;52.368;4.940;2023-05-10T03:28:16;39.60;;;18.00;;
40254;SDS011;25973;52.368;4.940;2023-05-10T03:30:43;35.88;;;17.58;;
40254;SDS011;25973;52.368;4.940;2023-05-10T03:33:09;39.22;;;17.50;;
40254;SDS011;25973;52.368;4.940;2023-05-10T03:35:35;39.95;;;19.38;;
40254;SDS011;25973;52.368;4.940;2023-05-10T03:38:01;42.45;;;18.17;;
40254;SDS011;25973;52.368;4.940;2023-05-10T03:40:27;31.10;;;15.85;;
40254;SDS011;25973;52.368;4.940;2023-05-10T03:42:56;26.73;;;12.48;;
40254;SDS011;25973;52.368;4.940;2023-05-10T03:45:21;24.92;;;12.20;;
40254;SDS011;25973;52.368;4.940;2023-05-10T03:47:47;23.38;;;10.90;;
40254;SDS011;25973;52.368;4.940;2023-05-10T03:50:13;27.50;;;10.93;;
40254;SDS011;25973;52.368;4.940;2023-05-10T03:52:38;29.70;;;13.35;;
40254;SDS011;25973;52.368;4.940;2023-05-10T03:55:04;33.20;;;12.60;;
40254;SDS011;25973;52.368;4.940;2023-05-10T03:57:31;33.90;;;13.63;;
40254;SDS011;25973;52.368;4.940;2023-05-10T03:59:57;30.58;;;13.23;;
40254;SDS011;25973;52.368;4.940;2023-05-10T04:02:22;30.88;;;13.98;;
40254;SDS011;25973;52.368;4.940;2023-05-10T04:04:48;30.73;;;15.10;;
40254;SDS011;25973;52.368;4.940;2023-05-10T04:07:13;36.83;;;14.88;;
40254;SDS011;25973;52.368;4.940;2023-05-10T04:09:39;31.90;;;15.07;;
40254;SDS011;25973;52.368;4.940;2023-05-10T04:12:05;33.03;;;14.30;;
40254;SDS011;25973;52.368;4.940;2023-05-10T04:14:31;34.58;;;14.48;;
40254;SDS011;25973;52.368;4.940;2023-05-10T04:16:56;34.92;;;14.82;;
40254;SDS011;25973;52.368;4.940;2023-05-10T04:19:22;36.17;;;15.18;;
40254;SDS011;25973;52.368;4.940;2023-05-10T04:21:48;32.42;;;15.43;;
40254;SDS011;25973;52.368;4.940;2023-05-10T04:24:13;31.77;;;14.07;;
40254;SDS011;25973;52.368;4.940;2023-05-10T04:26:39;31.98;;;14.25;;
40254;SDS011;25973;52.368;4.940;2023-05-10T04:29:05;39.08;;;15.70;;
40254;SDS011;25973;52.368;4.940;2023-05-10T04:31:31;33.38;;;15.50;;
40254;SDS011;25973;52.368;4.940;2023-05-10T04:33:56;32.75;;;14.80;;
40254;SDS011;25973;52.368;4.940;2023-05-10T04:36:22;33.97;;;14.80;;
40254;SDS011;25973;52.368;4.940;2023-05-10T04:38:47;39.50;;;15.73;;
40254;SDS011;25973;52.368;4.940;2023-05-10T04:41:13;33.67;;;16.42;;
40254;SDS011;25973;52.368;4.940;2023-05-10T04:43:38;35.35;;;15.13;;
40254;SDS011;25973;52.368;4.940;2023-05-10T04:46:04;42.40;;;15.20;;
40254;SDS011;25973;52.368;4.940;2023-05-10T04:48:30;39.80;;;15.75;;
40254;SDS011;25973;52.368;4.940;2023-05-10T04:50:56;33.65;;;14.60;;
40254;SDS011;25973;52.368;4.940;2023-05-10T04:53:22;33.00;;;14.63;;
40254;SDS011;25973;52.368;4.940;2023-05-10T04:55:47;33.75;;;14.20;;
40254;SDS011;25973;52.368;4.940;2023-05-10T04:58:13;32.72;;;13.43;;
40254;SDS011;25973;52.368;4.940;2023-05-10T05:00:39;36.65;;;14.55;;
40254;SDS011;25973;52.368;4.940;2023-05-10T05:03:04;31.20;;;14.32;;
40254;SDS011;25973;52.368;4.940;2023-05-10T05:05:31;28.90;;;14.02;;
40254;SDS011;25973;52.368;4.940;2023-05-10T05:07:56;31.00;;;13.85;;
40254;SDS011;25973;52.368;4.940;2023-05-10T05:10:22;31.40;;;13.10;;
40254;SDS011;25973;52.368;4.940;2023-05-10T05:12:47;32.33;;;12.38;;
40254;SDS011;25973;52.368;4.940;2023-05-10T05:15:13;32.45;;;13.23;;
40254;SDS011;25973;52.368;4.940;2023-05-10T05:17:40;25.23;;;11.68;;
40254;SDS011;25973;52.368;4.940;2023-05-10T05:20:05;30.23;;;12.50;;
40254;SDS011;25973;52.368;4.940;2023-05-10T05:22:32;25.55;;;11.18;;
40254;SDS011;25973;52.368;4.940;2023-05-10T05:24:57;30.10;;;11.90;;
40254;SDS011;25973;52.368;4.940;2023-05-10T05:27:23;21.98;;;10.10;;
40254;SDS011;25973;52.368;4.940;2023-05-10T05:29:53;30.60;;;12.48;;
40254;SDS011;25973;52.368;4.940;2023-05-10T05:32:20;28.40;;;10.57;;
40254;SDS011;25973;52.368;4.940;2023-05-10T05:34:46;23.23;;;10.77;;
40254;SDS011;25973;52.368;4.940;2023-05-10T05:37:12;20.75;;;9.93;;
40254;SDS011;25973;52.368;4.940;2023-05-10T05:39:41;26.52;;;10.70;;
40254;SDS011;25973;52.368;4.940;2023-05-10T05:42:08;20.52;;;9.52;;
40254;SDS011;25973;52.368;4.940;2023-05-10T05:44:34;21.83;;;9.52;;
40254;SDS011;25973;52.368;4.940;2023-05-10T05:46:59;20.63;;;10.10;;
40254;SDS011;25973;52.368;4.940;2023-05-10T05:49:25;19.30;;;9.23;;
40254;SDS011;25973;52.368;4.940;2023-05-10T05:51:51;19.55;;;9.77;;
40254;SDS011;25973;52.368;4.940;2023-05-10T05:54:16;21.70;;;9.00;;
40254;SDS011;25973;52.368;4.940;2023-05-10T05:56:42;17.15;;;8.07;;
40254;SDS011;25973;52.368;4.940;2023-05-10T05:59:09;21.63;;;9.52;;
40254;SDS011;25973;52.368;4.940;2023-05-10T06:01:35;22.23;;;9.07;;
40254;SDS011;25973;52.368;4.940;2023-05-10T06:04:01;17.08;;;8.40;;
40254;SDS011;25973;52.368;4.940;2023-05-10T06:06:26;18.20;;;8.43;;
40254;SDS011;25973;52.368;4.940;2023-05-10T06:08:52;19.48;;;7.95;;
40254;SDS011;25973;52.368;4.940;2023-05-10T06:11:18;18.73;;;7.85;;
40254;SDS011;25973;52.368;4.940;2023-05-10T06:13:43;20.05;;;8.52;;
40254;SDS011;25973;52.368;4.940;2023-05-10T06:16:09;16.40;;;7.32;;
40254;SDS011;25973;52.368;4.940;2023-05-10T06:18:35;17.38;;;8.20;;
40254;SDS011;25973;52.368;4.940;2023-05-10T06:21:00;18.45;;;7.65;;
40254;SDS011;25973;52.368;4.940;2023-05-10T06:23:26;18.67;;;8.82;;
40254;SDS011;25973;52.368;4.940;2023-05-10T06:25:52;14.98;;;7.22;;
40254;SDS011;25973;52.368;4.940;2023-05-10T06:28:17;18.02;;;7.97;;
40254;SDS011;25973;52.368;4.940;2023-05-10T06:30:43;16.02;;;7.63;;
40254;SDS011;25973;52.368;4.940;2023-05-10T06:33:09;15.75;;;7.53;;
40254;SDS011;25973;52.368;4.940;2023-05-10T06:35:34;15.23;;;8.32;;
40254;SDS011;25973;52.368;4.940;2023-05-10T06:38:01;15.75;;;8.27;;
40254;SDS011;25973;52.368;4.940;2023-05-10T06:40:27;17.83;;;8.85;;
40254;SDS011;25973;52.368;4.940;2023-05-10T06:42:52;20.63;;;9.07;;
40254;SDS011;25973;52.368;4.940;2023-05-10T06:45:18;20.85;;;9.50;;
40254;SDS011;25973;52.368;4.940;2023-05-10T06:47:45;21.08;;;9.95;;
40254;SDS011;25973;52.368;4.940;2023-05-10T06:50:10;21.00;;;9.70;;
40254;SDS011;25973;52.368;4.940;2023-05-10T06:52:36;19.67;;;8.13;;
40254;SDS011;25973;52.368;4.940;2023-05-10T06:55:02;16.50;;;7.82;;
40254;SDS011;25973;52.368;4.940;2023-05-10T06:57:28;20.70;;;8.63;;
40254;SDS011;25973;52.368;4.940;2023-05-10T06:59:54;14.77;;;7.72;;
40254;SDS011;25973;52.368;4.940;2023-05-10T07:02:21;24.20;;;8.88;;
40254;SDS011;25973;52.368;4.940;2023-05-10T07:04:47;14.02;;;7.00;;
40254;SDS011;25973;52.368;4.940;2023-05-10T07:07:13;17.63;;;7.82;;
40254;SDS011;25973;52.368;4.940;2023-05-10T07:09:39;13.45;;;7.45;;
40254;SDS011;25973;52.368;4.940;2023-05-10T07:12:05;18.52;;;7.70;;
40254;SDS011;25973;52.368;4.940;2023-05-10T07:14:30;14.02;;;7.80;;
40254;SDS011;25973;52.368;4.940;2023-05-10T07:16:56;14.25;;;8.43;;
40254;SDS011;25973;52.368;4.940;2023-05-10T07:19:21;15.85;;;7.88;;
40254;SDS011;25973;52.368;4.940;2023-05-10T07:21:47;18.38;;;6.93;;
40254;SDS011;25973;52.368;4.940;2023-05-10T07:24:13;16.40;;;8.25;;
40254;SDS011;25973;52.368;4.940;2023-05-10T07:26:38;17.25;;;7.90;;
40254;SDS011;25973;52.368;4.940;2023-05-10T07:29:04;17.00;;;8.40;;
40254;SDS011;25973;52.368;4.940;2023-05-10T07:31:29;15.43;;;8.15;;
40254;SDS011;25973;52.368;4.940;2023-05-10T07:33:55;19.55;;;9.13;;
40254;SDS011;25973;52.368;4.940;2023-05-10T07:36:20;21.33;;;8.32;;
40254;SDS011;25973;52.368;4.940;2023-05-10T07:38:46;18.88;;;8.68;;
40254;SDS011;25973;52.368;4.940;2023-05-10T07:41:11;22.40;;;8.85;;
40254;SDS011;25973;52.368;4.940;2023-05-10T07:43:37;19.67;;;9.88;;
40254;SDS011;25973;52.368;4.940;2023-05-10T07:46:03;20.95;;;9.32;;
40254;SDS011;25973;52.368;4.940;2023-05-10T07:48:29;24.75;;;10.10;;
40254;SDS011;25973;52.368;4.940;2023-05-10T07:50:54;21.33;;;10.88;;
40254;SDS011;25973;52.368;4.940;2023-05-10T07:53:20;20.85;;;10.25;;
40254;SDS011;25973;52.368;4.940;2023-05-10T07:55:57;31.63;;;10.50;;
40254;SDS011;25973;52.368;4.940;2023-05-10T07:58:23;22.02;;;10.90;;
40254;SDS011;25973;52.368;4.940;2023-05-10T08:00:49;20.70;;;10.93;;
40254;SDS011;25973;52.368;4.940;2023-05-10T08:03:15;21.73;;;11.07;;
40254;SDS011;25973;52.368;4.940;2023-05-10T08:05:40;18.77;;;9.88;;
40254;SDS011;25973;52.368;4.940;2023-05-10T08:08:06;20.77;;;10.38;;
40254;SDS011;25973;52.368;4.940;2023-05-10T08:10:32;18.95;;;8.98;;
40254;SDS011;25973;52.368;4.940;2023-05-10T08:12:57;13.55;;;7.18;;
40254;SDS011;25973;52.368;4.940;2023-05-10T08:15:23;13.15;;;6.70;;
40254;SDS011;25973;52.368;4.940;2023-05-10T08:17:51;12.68;;;6.40;;
40254;SDS011;25973;52.368;4.940;2023-05-10T08:20:16;7.53;;;4.78;;
40254;SDS011;25973;52.368;4.940;2023-05-10T08:22:44;9.60;;;5.28;;
40254;SDS011;25973;52.368;4.940;2023-05-10T08:25:10;7.78;;;4.63;;
40254;SDS011;25973;52.368;4.940;2023-05-10T08:27:36;7.85;;;4.93;;
40254;SDS011;25973;52.368;4.940;2023-05-10T08:30:01;10.18;;;4.22;;
40254;SDS011;25973;52.368;4.940;2023-05-10T08:32:27;9.30;;;4.55;;
40254;SDS011;25973;52.368;4.940;2023-05-10T08:34:52;12.35;;;5.22;;
40254;SDS011;25973;52.368;4.940;2023-05-10T08:37:18;6.63;;;4.28;;
40254;SDS011;25973;52.368;4.940;2023-05-10T08:39:44;8.65;;;3.75;;
40254;SDS011;25973;52.368;4.940;2023-05-10T08:42:12;9.75;;;3.95;;
40254;SDS011;25973;52.368;4.940;2023-05-10T08:44:43;12.02;;;4.53;;
40254;SDS011;25973;52.368;4.940;2023-05-10T08:47:10;5.18;;;3.15;;
40254;SDS011;25973;52.368;4.940;2023-05-10T08:49:38;11.48;;;3.45;;
40254;SDS011;25973;52.368;4.940;2023-05-10T08:52:04;8.40;;;3.70;;
40254;SDS011;25973;52.368;4.940;2023-05-10T08:54:32;6.60;;;3.08;;
40254;SDS011;25973;52.368;4.940;2023-05-10T08:56:58;6.22;;;3.80;;
40254;SDS011;25973;52.368;4.940;2023-05-10T08:59:24;10.30;;;3.78;;
40254;SDS011;25973;52.368;4.940;2023-05-10T09:01:50;7.22;;;3.40;;
40254;SDS011;25973;52.368;4.940;2023-05-10T09:04:18;7.90;;;3.92;;
40254;SDS011;25973;52.368;4.940;2023-05-10T09:06:44;9.02;;;3.83;;
40254;SDS011;25973;52.368;4.940;2023-05-10T09:09:10;9.10;;;3.63;;
40254;SDS011;25973;52.368;4.940;2023-05-10T09:11:36;6.88;;;4.05;;
40254;SDS011;25973;52.368;4.940;2023-05-10T09:14:02;6.40;;;4.10;;
40254;SDS011;25973;52.368;4.940;2023-05-10T09:16:28;5.88;;;3.58;;
40254;SDS011;25973;52.368;4.940;2023-05-10T09:18:53;7.57;;;4.07;;
40254;SDS011;25973;52.368;4.940;2023-05-10T09:21:19;8.32;;;3.50;;
40254;SDS011;25973;52.368;4.940;2023-05-10T09:23:45;7.40;;;3.15;;
40254;SDS011;25973;52.368;4.940;2023-05-10T09:26:15;5.55;;;3.28;;
40254;SDS011;25973;52.368;4.940;2023-05-10T09:28:59;5.15;;;2.90;;
40254;SDS011;25973;52.368;4.940;2023-05-10T09:31:43;5.93;;;3.08;;
40254;SDS011;25973;52.368;4.940;2023-05-10T09:34:17;6.75;;;3.30;;
40254;SDS011;25973;52.368;4.940;2023-05-10T09:36:53;10.98;;;2.85;;
40254;SDS011;25973;52.368;4.940;2023-05-10T09:39:22;7.03;;;2.40;;
40254;SDS011;25973;52.368;4.940;2023-05-10T09:41:59;5.97;;;2.72;;
40254;SDS011;25973;52.368;4.940;2023-05-10T09:44:26;8.27;;;2.97;;
40254;SDS011;25973;52.368;4.940;2023-05-10T09:46:52;5.47;;;2.65;;
40254;SDS011;25973;52.368;4.940;2023-05-10T09:49:21;5.82;;;2.58;;
40254;SDS011;25973;52.368;4.940;2023-05-10T09:51:47;4.55;;;2.55;;
40254;SDS011;25973;52.368;4.940;2023-05-10T09:54:24;6.60;;;2.70;;
40254;SDS011;25973;52.368;4.940;2023-05-10T09:56:49;5.05;;;2.47;;
40254;SDS011;25973;52.368;4.940;2023-05-10T09:59:15;8.80;;;2.97;;
40254;SDS011;25973;52.368;4.940;2023-05-10T10:01:41;5.97;;;2.28;;
40254;SDS011;25973;52.368;4.940;2023-05-10T10:04:13;4.10;;;2.22;;
40254;SDS011;25973;52.368;4.940;2023-05-10T10:06:40;5.47;;;2.47;;
40254;SDS011;25973;52.368;4.940;2023-05-10T10:09:06;8.70;;;2.50;;
40254;SDS011;25973;52.368;4.940;2023-05-10T10:11:33;5.65;;;1.95;;
40254;SDS011;25973;52.368;4.940;2023-05-10T10:14:00;6.43;;;3.10;;
40254;SDS011;25973;52.368;4.940;2023-05-10T10:16:26;9.07;;;2.92;;
40254;SDS011;25973;52.368;4.940;2023-05-10T10:18:56;7.72;;;2.80;;
40254;SDS011;25973;52.368;4.940;2023-05-10T10:21:23;6.63;;;2.65;;
40254;SDS011;25973;52.368;4.940;2023-05-10T10:23:49;8.52;;;2.63;;
40254;SDS011;25973;52.368;4.940;2023-05-10T10:26:15;4.78;;;2.22;;
40254;SDS011;25973;52.368;4.940;2023-05-10T10:28:47;4.03;;;2.35;;
40254;SDS011;25973;52.368;4.940;2023-05-10T10:31:23;5.18;;;2.75;;
40254;SDS011;25973;52.368;4.940;2023-05-10T10:33:55;4.13;;;2.58;;
40254;SDS011;25973;52.368;4.940;2023-05-10T10:36:32;6.93;;;2.90;;
40254;SDS011;25973;52.368;4.940;2023-05-10T10:39:08;4.70;;;2.72;;
40254;SDS011;25973;52.368;4.940;2023-05-10T10:41:54;5.63;;;2.15;;
40254;SDS011;25973;52.368;4.940;2023-05-10T10:44:33;5.78;;;2.28;;
40254;SDS011;25973;52.368;4.940;2023-05-10T10:49:48;5.63;;;2.38;;
40254;SDS011;25973;52.368;4.940;2023-05-10T10:52:32;7.90;;;2.17;;
40254;SDS011;25973;52.368;4.940;2023-05-10T10:57:49;3.30;;;2.00;;
40254;SDS011;25973;52.368;4.940;2023-05-10T11:03:05;6.88;;;2.33;;
40254;SDS011;25973;52.368;4.940;2023-05-10T11:11:13;8.57;;;2.53;;
40254;SDS011;25973;52.368;4.940;2023-05-10T11:13:40;5.57;;;2.13;;
40254;SDS011;25973;52.368;4.940;2023-05-10T11:16:10;5.20;;;2.20;;
40254;SDS011;25973;52.368;4.940;2023-05-10T11:18:37;5.72;;;2.60;;
40254;SDS011;25973;52.368;4.940;2023-05-10T11:21:02;12.85;;;2.53;;
40254;SDS011;25973;52.368;4.940;2023-05-10T11:23:47;5.70;;;2.67;;
40254;SDS011;25973;52.368;4.940;2023-05-10T11:26:15;5.43;;;2.15;;
40254;SDS011;25973;52.368;4.940;2023-05-10T11:28:41;8.20;;;3.25;;
40254;SDS011;25973;52.368;4.940;2023-05-10T11:31:17;6.75;;;2.28;;
40254;SDS011;25973;52.368;4.940;2023-05-10T11:33:45;6.60;;;2.83;;
40254;SDS011;25973;52.368;4.940;2023-05-10T11:36:16;6.18;;;2.35;;
40254;SDS011;25973;52.368;4.940;2023-05-10T11:38:43;7.45;;;2.90;;
40254;SDS011;25973;52.368;4.940;2023-05-10T11:41:09;6.65;;;2.42;;
40254;SDS011;25973;52.368;4.940;2023-05-10T11:43:39;9.95;;;2.63;;
40254;SDS011;25973;52.368;4.940;2023-05-10T11:46:08;11.43;;;3.55;;
40254;SDS011;25973;52.368;4.940;2023-05-10T11:48:36;7.53;;;3.10;;
40254;SDS011;25973;52.368;4.940;2023-05-10T11:51:03;9.23;;;3.53;;
40254;SDS011;25973;52.368;4.940;2023-05-10T11:53:29;10.73;;;4.60;;
40254;SDS011;25973;52.368;4.940;2023-05-10T11:56:02;6.10;;;3.17;;
40254;SDS011;25973;52.368;4.940;2023-05-10T11:58:31;8.63;;;4.13;;
40254;SDS011;25973;52.368;4.940;2023-05-10T12:00:58;10.95;;;4.78;;
40254;SDS011;25973;52.368;4.940;2023-05-10T12:03:24;8.90;;;4.20;;
40254;SDS011;25973;52.368;4.940;2023-05-10T12:05:50;8.80;;;3.72;;
40254;SDS011;25973;52.368;4.940;2023-05-10T12:08:20;8.98;;;4.35;;
40254;SDS011;25973;52.368;4.940;2023-05-10T12:10:53;9.40;;;4.10;;
40254;SDS011;25973;52.368;4.940;2023-05-10T12:13:19;12.43;;;3.95;;
40254;SDS011;25973;52.368;4.940;2023-05-10T12:15:46;9.77;;;4.72;;
40254;SDS011;25973;52.368;4.940;2023-05-10T12:18:12;9.73;;;4.53;;
40254;SDS011;25973;52.368;4.940;2023-05-10T12:20:39;6.68;;;3.60;;
40254;SDS011;25973;52.368;4.940;2023-05-10T12:23:07;9.32;;;4.03;;
40254;SDS011;25973;52.368;4.940;2023-05-10T12:25:34;6.60;;;2.97;;
40254;SDS011;25973;52.368;4.940;2023-05-10T12:28:05;6.32;;;3.58;;
40254;SDS011;25973;52.368;4.940;2023-05-10T12:30:33;9.18;;;3.17;;
40254;SDS011;25973;52.368;4.940;2023-05-10T12:33:07;10.38;;;3.47;;
40254;SDS011;25973;52.368;4.940;2023-05-10T12:35:43;10.68;;;4.22;;
40254;SDS011;25973;52.368;4.940;2023-05-10T12:41:01;7.80;;;3.85;;
40254;SDS011;25973;52.368;4.940;2023-05-10T12:43:29;5.88;;;2.83;;
40254;SDS011;25973;52.368;4.940;2023-05-10T12:45:55;8.95;;;2.85;;
40254;SDS011;25973;52.368;4.940;2023-05-10T12:48:21;6.90;;;3.25;;
40254;SDS011;25973;52.368;4.940;2023-05-10T12:50:47;5.88;;;2.83;;
40254;SDS011;25973;52.368;4.940;2023-05-10T12:53:16;5.68;;;3.38;;
40254;SDS011;25973;52.368;4.940;2023-05-10T12:55:42;6.78;;;3.20;;
40254;SDS011;25973;52.368;4.940;2023-05-10T12:58:08;6.25;;;2.70;;
40254;SDS011;25973;52.368;4.940;2023-05-10T13:00:34;9.00;;;3.60;;
40254;SDS011;25973;52.368;4.940;2023-05-10T13:02:59;7.07;;;3.08;;
40254;SDS011;25973;52.368;4.940;2023-05-10T13:05:25;7.07;;;3.00;;
40254;SDS011;25973;52.368;4.940;2023-05-10T13:07:50;5.82;;;2.30;;
40254;SDS011;25973;52.368;4.940;2023-05-10T13:10:16;5.53;;;2.40;;
40254;SDS011;25973;52.368;4.940;2023-05-10T13:12:42;4.88;;;1.95;;
40254;SDS011;25973;52.368;4.940;2023-05-10T13:15:07;4.18;;;1.73;;
40254;SDS011;25973;52.368;4.940;2023-05-10T13:17:33;10.98;;;1.83;;
40254;SDS011;25973;52.368;4.940;2023-05-10T13:19:59;7.28;;;1.95;;
40254;SDS011;25973;52.368;4.940;2023-05-10T13:22:24;3.95;;;1.35;;
40254;SDS011;25973;52.368;4.940;2023-05-10T13:24:50;2.90;;;1.60;;
40254;SDS011;25973;52.368;4.940;2023-05-10T13:27:15;4.90;;;2.40;;
40254;SDS011;25973;52.368;4.940;2023-05-10T13:29:41;4.72;;;2.10;;
40254;SDS011;25973;52.368;4.940;2023-05-10T13:32:06;3.92;;;1.73;;
40254;SDS011;25973;52.368;4.940;2023-05-10T13:34:32;8.57;;;2.65;;
40254;SDS011;25973;52.368;4.940;2023-05-10T13:36:57;5.05;;;1.85;;
40254;SDS011;25973;52.368;4.940;2023-05-10T13:39:23;3.72;;;2.25;;
40254;SDS011;25973;52.368;4.940;2023-05-10T13:41:48;5.30;;;2.25;;
40254;SDS011;25973;52.368;4.940;2023-05-10T13:44:14;6.93;;;2.30;;
40254;SDS011;25973;52.368;4.940;2023-05-10T13:46:40;5.32;;;2.10;;
40254;SDS011;25973;52.368;4.940;2023-05-10T13:49:08;6.40;;;2.53;;
40254;SDS011;25973;52.368;4.940;2023-05-10T13:51:34;5.10;;;2.17;;
40254;SDS011;25973;52.368;4.940;2023-05-10T13:54:00;4.65;;;2.80;;
40254;SDS011;25973;52.368;4.940;2023-05-10T13:56:26;9.02;;;3.58;;
40254;SDS011;25973;52.368;4.940;2023-05-10T13:58:52;7.65;;;3.25;;
40254;SDS011;25973;52.368;4.940;2023-05-10T14:01:18;5.97;;;3.10;;
40254;SDS011;25973;52.368;4.940;2023-05-10T14:03:44;8.25;;;3.17;;
40254;SDS011;25973;52.368;4.940;2023-05-10T14:06:09;12.65;;;3.92;;
40254;SDS011;25973;52.368;4.940;2023-05-10T14:08:35;5.70;;;2.75;;
40254;SDS011;25973;52.368;4.940;2023-05-10T14:11:01;5.32;;;2.63;;
40254;SDS011;25973;52.368;4.940;2023-05-10T14:13:27;9.02;;;3.50;;
40254;SDS011;25973;52.368;4.940;2023-05-10T14:15:53;7.95;;;3.22;;
40254;SDS011;25973;52.368;4.940;2023-05-10T14:18:19;7.28;;;3.40;;
40254;SDS011;25973;52.368;4.940;2023-05-10T14:20:44;11.65;;;2.70;;
40254;SDS011;25973;52.368;4.940;2023-05-10T14:23:10;7.15;;;2.95;;
40254;SDS011;25973;52.368;4.940;2023-05-10T14:25:36;8.27;;;3.22;;
40254;SDS011;25973;52.368;4.940;2023-05-10T14:28:03;6.13;;;2.80;;
40254;SDS011;25973;52.368;4.940;2023-05-10T14:30:28;8.55;;;2.85;;
40254;SDS011;25973;52.368;4.940;2023-05-10T14:32:54;5.97;;;2.85;;
40254;SDS011;25973;52.368;4.940;2023-05-10T14:35:20;4.60;;;2.13;;
40254;SDS011;25973;52.368;4.940;2023-05-10T14:37:46;5.80;;;2.33;;
40254;SDS011;25973;52.368;4.940;2023-05-10T14:40:11;4.78;;;2.10;;
40254;SDS011;25973;52.368;4.940;2023-05-10T14:42:37;4.22;;;1.77;;
40254;SDS011;25973;52.368;4.940;2023-05-10T14:45:03;6.10;;;2.58;;
40254;SDS011;25973;52.368;4.940;2023-05-10T14:47:29;5.90;;;2.00;;
40254;SDS011;25973;52.368;4.940;2023-05-10T14:49:55;5.07;;;1.90;;
40254;SDS011;25973;52.368;4.940;2023-05-10T14:52:20;3.22;;;1.40;;
40254;SDS011;25973;52.368;4.940;2023-05-10T14:54:46;5.43;;;1.67;;
40254;SDS011;25973;52.368;4.940;2023-05-10T14:57:11;5.40;;;1.73;;
40254;SDS011;25973;52.368;4.940;2023-05-10T14:59:37;3.97;;;1.92;;
40254;SDS011;25973;52.368;4.940;2023-05-10T15:02:03;6.28;;;1.80;;
40254;SDS011;25973;52.368;4.940;2023-05-10T15:04:29;3.17;;;1.73;;
40254;SDS011;25973;52.368;4.940;2023-05-10T15:06:55;3.45;;;1.80;;
40254;SDS011;25973;52.368;4.940;2023-05-10T15:09:24;5.75;;;2.15;;